sensor_id;sensor_type;location;lat;lon;timestamp;pressure;altitude;pressure_sealevel;temperature;humidity
70559;BME280;58108;48.094;11.838;2024-01-10T00:01:50;96001.66;;;-8.95;100.00
70559;BME280;58108;48.094;11.838;2024-01-10T00:04:16;96000.88;;;-8.80;100.00
70559;BME280;58108;48.094;11.838;2024-01-10T00:06:42;96001.78;;;-8.70;100.00
70559;BME280;58108;48.094;11.838;2024-01-10T00:09:08;96002.59;;;-8.77;100.00
70559;BME280;58108;48.094;11.838;2024-01-10T00:11:34;96005.03;;;-8.96;100.00
70559;BME280;58108;48.094;11.838;2024-01-10T00:13:59;96005.78;;;-9.06;100.00
70559;BME280;58108;48.094;11.838;2024-01-10T00:16:26;96000.00;;;-8.89;100.00
70559;BME280;58108;48.094;11.838;2024-01-10T00:18:54;95999.06;;;-9.01;100.00
70559;BME280;58108;48.094;11.838;2024-01-10T00:21:20;95999.97;;;-8.96;100.00
70559;BME280;58108;48.094;11.838;2024-01-10T00:23:45;96000.81;;;-8.92;100.00
70559;BME280;58108;48.094;11.838;2024-01-10T00:26:11;95999.06;;;-9.01;100.00
70559;BME280;58108;48.094;11.838;2024-01-10T00:28:36;95997.50;;;-8.85;100.00
70559;BME280;58108;48.094;11.838;2024-01-10T00:31:02;96001.66;;;-8.92;100.00
70559;BME280;58108;48.094;11.838;2024-01-10T00:33:28;95999.13;;;-8.92;100.00
70559;BME280;58108;48.094;11.838;2024-01-10T00:35:53;96006.88;;;-8.70;100.00
70559;BME280;58108;48.094;11.838;2024-01-10T00:38:19;96007.69;;;-8.74;100.00
70559;BME280;58108;48.094;11.838;2024-01-10T00:40:44;96012.81;;;-8.68;100.00
70559;BME280;58108;48.094;11.838;2024-01-10T00:43:10;96005.97;;;-8.80;100.00
70559;BME280;58108;48.094;11.838;2024-01-10T00:45:35;96008.53;;;-8.76;100.00
70559;BME280;58108;48.094;11.838;2024-01-10T00:48:00;96001.84;;;-8.62;100.00
70559;BME280;58108;48.094;11.838;2024-01-10T00:50:26;96006.81;;;-8.76;100.00
70559;BME280;58108;48.094;11.838;2024-01-10T00:52:51;96002.63;;;-8.74;100.00
70559;BME280;58108;48.094;11.838;2024-01-10T00:55:17;96001.00;;;-8.64;100.00
70559;BME280;58108;48.094;11.838;2024-01-10T00:57:42;96000.13;;;-8.65;100.00
70559;BME280;58108;48.094;11.838;2024-01-10T01:00:09;96007.75;;;-8.60;100.00
70559;BME280;58108;48.094;11.838;2024-01-10T01:02:36;96009.44;;;-8.67;100.00
70559;BME280;58108;48.094;11.838;2024-01-10T01:05:05;96010.31;;;-8.63;100.00
70559;BME280;58108;48.094;11.838;2024-01-10T01:07:32;96001.88;;;-8.56;100.00
70559;BME280;58108;48.094;11.838;2024-01-10T01:09:58;96005.31;;;-8.33;100.00
70559;BME280;58108;48.094;11.838;2024-01-10T01:12:24;96010.41;;;-8.24;100.00
70559;BME280;58108;48.094;11.838;2024-01-10T01:14:49;96013.78;;;-8.38;100.00
70559;BME280;58108;48.094;11.838;2024-01-10T01:17:15;96016.38;;;-8.20;100.00
70559;BME280;58108;48.094;11.838;2024-01-10T01:19:40;96022.34;;;-8.14;100.00
70559;BME280;58108;48.094;11.838;2024-01-10T01:22:06;96029.06;;;-8.27;100.00
70559;BME280;58108;48.094;11.838;2024-01-10T01:24:32;96022.25;;;-8.34;100.00
70559;BME280;58108;48.094;11.838;2024-01-10T01:26:57;96026.47;;;-8.34;100.00
70559;BME280;58108;48.094;11.838;2024-01-10T01:29:23;96030.75;;;-8.23;100.00
70559;BME280;58108;48.094;11.838;2024-01-10T01:31:49;96035.00;;;-8.21;100.00
70559;BME280;58108;48.094;11.838;2024-01-10T01:34:15;96032.41;;;-8.35;100.00
70559;BME280;58108;48.094;11.838;2024-01-10T01:36:41;96026.41;;;-8.52;100.00
70559;BME280;58108;48.094;11.838;2024-01-10T01:39:06;96032.38;;;-8.51;100.00
70559;BME280;58108;48.094;11.838;2024-01-10T01:41:32;96036.59;;;-8.42;100.00
70559;BME280;58108;48.094;11.838;2024-01-10T01:43:57;96028.13;;;-8.57;100.00
70559;BME280;58108;48.094;11.838;2024-01-10T01:46:23;96032.34;;;-8.43;100.00
70559;BME280;58108;48.094;11.838;2024-01-10T01:48:49;96029.94;;;-8.11;100.00
70559;BME280;58108;48.094;11.838;2024-01-10T01:51:16;96025.69;;;-8.26;100.00
70559;BME280;58108;48.094;11.838;2024-01-10T01:53:44;96028.22;;;-8.18;100.00
70559;BME280;58108;48.094;11.838;2024-01-10T01:56:10;96034.09;;;-8.34;100.00
70559;BME280;58108;48.094;11.838;2024-01-10T01:58:38;96031.47;;;-8.61;100.00
70559;BME280;58108;48.094;11.838;2024-01-10T02:01:05;96032.28;;;-8.65;100.00
70559;BME280;58108;48.094;11.838;2024-01-10T02:03:31;96033.06;;;-8.79;100.00
70559;BME280;58108;48.094;11.838;2024-01-10T02:05:59;96030.53;;;-8.75;100.00
70559;BME280;58108;48.094;11.838;2024-01-10T02:08:24;96030.66;;;-8.46;100.00
70559;BME280;58108;48.094;11.838;2024-01-10T02:10:50;96034.03;;;-8.47;100.00
70559;BME280;58108;48.094;11.838;2024-01-10T02:13:16;96030.78;;;-8.16;100.00
70559;BME280;58108;48.094;11.838;2024-01-10T02:15:42;96036.53;;;-8.58;100.00
70559;BME280;58108;48.094;11.838;2024-01-10T02:18:08;96030.63;;;-8.55;100.00
70559;BME280;58108;48.094;11.838;2024-01-10T02:20:38;96034.81;;;-8.68;100.00
70559;BME280;58108;48.094;11.838;2024-01-10T02:23:03;96033.03;;;-8.80;100.00
70559;BME280;58108;48.094;11.838;2024-01-10T02:25:29;96027.16;;;-8.73;100.00
70559;BME280;58108;48.094;11.838;2024-01-10T02:27:54;96033.97;;;-8.62;100.00
70559;BME280;58108;48.094;11.838;2024-01-10T02:30:20;96046.72;;;-8.56;100.00
70559;BME280;58108;48.094;11.838;2024-01-10T02:32:45;96047.47;;;-8.73;100.00
70559;BME280;58108;48.094;11.838;2024-01-10T02:35:11;96046.69;;;-8.64;100.00
70559;BME280;58108;48.094;11.838;2024-01-10T02:37:36;96045.94;;;-8.41;100.00
70559;BME280;58108;48.094;11.838;2024-01-10T02:40:02;96047.59;;;-8.43;100.00
70559;BME280;58108;48.094;11.838;2024-01-10T02:42:28;96041.66;;;-8.47;100.00
70559;BME280;58108;48.094;11.838;2024-01-10T02:44:54;96044.34;;;-8.14;100.00
70559;BME280;58108;48.094;11.838;2024-01-10T02:47:19;96042.63;;;-8.15;100.00
70559;BME280;58108;48.094;11.838;2024-01-10T02:49:45;96040.88;;;-8.33;100.00
70559;BME280;58108;48.094;11.838;2024-01-10T02:52:10;96037.50;;;-8.34;100.00
70559;BME280;58108;48.094;11.838;2024-01-10T02:54:36;96040.09;;;-8.20;100.00
70559;BME280;58108;48.094;11.838;2024-01-10T02:57:01;96038.25;;;-8.58;100.00
70559;BME280;58108;48.094;11.838;2024-01-10T02:59:27;96034.84;;;-8.60;100.00
70559;BME280;58108;48.094;11.838;2024-01-10T03:01:53;96034.81;;;-8.68;100.00
70559;BME280;58108;48.094;11.838;2024-01-10T03:04:18;96041.66;;;-8.42;100.00
70559;BME280;58108;48.094;11.838;2024-01-10T03:06:44;96032.38;;;-8.42;100.00
70559;BME280;58108;48.094;11.838;2024-01-10T03:09:10;96038.31;;;-8.35;100.00
70559;BME280;58108;48.094;11.838;2024-01-10T03:11:36;96028.13;;;-8.54;100.00
70559;BME280;58108;48.094;11.838;2024-01-10T03:14:11;96034.97;;;-8.28;100.00
70559;BME280;58108;48.094;11.838;2024-01-10T03:16:37;96036.63;;;-8.38;100.00
70559;BME280;58108;48.094;11.838;2024-01-10T03:19:03;96034.03;;;-8.45;100.00
70559;BME280;58108;48.094;11.838;2024-01-10T03:21:29;96034.91;;;-8.51;100.00
70559;BME280;58108;48.094;11.838;2024-01-10T03:23:59;96032.28;;;-8.67;100.00
70559;BME280;58108;48.094;11.838;2024-01-10T03:26:25;96031.44;;;-8.62;100.00
70559;BME280;58108;48.094;11.838;2024-01-10T03:28:51;96027.31;;;-8.37;100.00
70559;BME280;58108;48.094;11.838;2024-01-10T03:31:17;96021.44;;;-8.24;100.00
70559;BME280;58108;48.094;11.838;2024-01-10T03:33:43;96024.03;;;-8.11;100.00
70559;BME280;58108;48.094;11.838;2024-01-10T03:36:13;96021.41;;;-8.34;100.00
70559;BME280;58108;48.094;11.838;2024-01-10T03:38:39;96017.13;;;-8.42;100.00
70559;BME280;58108;48.094;11.838;2024-01-10T03:41:05;96014.72;;;-8.14;100.00
70559;BME280;58108;48.094;11.838;2024-01-10T03:43:30;96012.16;;;-8.23;100.00
70559;BME280;58108;48.094;11.838;2024-01-10T03:45:56;96004.31;;;-8.73;100.00
70559;BME280;58108;48.094;11.838;2024-01-10T03:48:22;95998.50;;;-8.44;100.00
70559;BME280;58108;48.094;11.838;2024-01-10T03:50:48;96001.06;;;-8.34;100.00
70559;BME280;58108;48.094;11.838;2024-01-10T03:53:14;96001.06;;;-8.34;100.00
70559;BME280;58108;48.094;11.838;2024-01-10T03:55:39;96001.00;;;-8.64;100.00
70559;BME280;58108;48.094;11.838;2024-01-10T03:58:05;96000.16;;;-8.55;100.00
70559;BME280;58108;48.094;11.838;2024-01-10T04:00:31;96004.41;;;-8.54;100.00
70559;BME280;58108;48.094;11.838;2024-01-10T04:02:56;96008.66;;;-8.45;100.00
70559;BME280;58108;48.094;11.838;2024-01-10T04:05:22;96003.56;;;-8.52;100.00
70559;BME280;58108;48.094;11.838;2024-01-10T04:07:49;96003.56;;;-8.56;100.00
70559;BME280;58108;48.094;11.838;2024-01-10T04:10:15;96010.34;;;-8.52;100.00
70559;BME280;58108;48.094;11.838;2024-01-10T04:12:41;96012.88;;;-8.47;100.00
70559;BME280;58108;48.094;11.838;2024-01-10T04:15:07;96006.94;;;-8.48;100.00
70559;BME280;58108;48.094;11.838;2024-01-10T04:17:33;96007.00;;;-8.35;100.00
70559;BME280;58108;48.094;11.838;2024-01-10T04:19:58;96007.03;;;-8.28;100.00
70559;BME280;58108;48.094;11.838;2024-01-10T04:22:24;96008.66;;;-8.45;100.00
70559;BME280;58108;48.094;11.838;2024-01-10T04:24:51;96005.25;;;-8.49;100.00
70559;BME280;58108;48.094;11.838;2024-01-10T04:27:16;96003.53;;;-8.58;100.00
70559;BME280;58108;48.094;11.838;2024-01-10T04:29:44;96006.16;;;-8.34;100.00
70559;BME280;58108;48.094;11.838;2024-01-10T04:32:10;96001.97;;;-8.21;100.00
70559;BME280;58108;48.094;11.838;2024-01-10T04:34:35;95996.03;;;-8.28;100.00
70559;BME280;58108;48.094;11.838;2024-01-10T04:37:01;95993.50;;;-8.28;100.00
70559;BME280;58108;48.094;11.838;2024-01-10T04:39:27;96003.59;;;-8.44;100.00
70559;BME280;58108;48.094;11.838;2024-01-10T04:41:52;95998.53;;;-8.31;100.00
70559;BME280;58108;48.094;11.838;2024-01-10T04:44:18;96001.94;;;-8.28;100.00
70559;BME280;58108;48.094;11.838;2024-01-10T04:46:43;96001.16;;;-8.08;100.00
70559;BME280;58108;48.094;11.838;2024-01-10T04:49:09;95994.38;;;-8.11;100.00
70559;BME280;58108;48.094;11.838;2024-01-10T04:51:35;95993.50;;;-8.27;100.00
70559;BME280;58108;48.094;11.838;2024-01-10T04:54:01;95995.19;;;-8.18;100.00
70559;BME280;58108;48.094;11.838;2024-01-10T04:56:26;95999.47;;;-8.14;100.00
70559;BME280;58108;48.094;11.838;2024-01-10T04:58:52;96003.72;;;-8.02;100.00
70559;BME280;58108;48.094;11.838;2024-01-10T05:01:18;96001.97;;;-8.21;100.00
70559;BME280;58108;48.094;11.838;2024-01-10T05:03:43;96004.53;;;-8.20;100.00
70559;BME280;58108;48.094;11.838;2024-01-10T05:06:09;96005.34;;;-8.26;100.00
70559;BME280;58108;48.094;11.838;2024-01-10T05:08:34;96005.44;;;-8.04;100.00
70559;BME280;58108;48.094;11.838;2024-01-10T05:11:00;96002.84;;;-8.19;100.00
70559;BME280;58108;48.094;11.838;2024-01-10T05:13:26;96008.75;;;-8.19;100.00
70559;BME280;58108;48.094;11.838;2024-01-10T05:15:51;96014.66;;;-8.29;100.00
70559;BME280;58108;48.094;11.838;2024-01-10T05:18:18;96008.69;;;-8.31;100.00
70559;BME280;58108;48.094;11.838;2024-01-10T05:20:44;96014.63;;;-8.35;100.00
70559;BME280;58108;48.094;11.838;2024-01-10T05:23:09;96018.06;;;-8.23;100.00
70559;BME280;58108;48.094;11.838;2024-01-10T05:25:35;96019.75;;;-8.29;100.00
70559;BME280;58108;48.094;11.838;2024-01-10T05:28:00;96020.56;;;-8.32;100.00
70559;BME280;58108;48.094;11.838;2024-01-10T05:30:26;96025.63;;;-8.33;100.00
70559;BME280;58108;48.094;11.838;2024-01-10T05:32:51;96027.41;;;-8.12;100.00
70559;BME280;58108;48.094;11.838;2024-01-10T05:35:17;96024.03;;;-8.10;100.00
70559;BME280;58108;48.094;11.838;2024-01-10T05:37:42;96033.34;;;-8.07;100.00
70559;BME280;58108;48.094;11.838;2024-01-10T05:40:09;96034.25;;;-7.97;100.00
70559;BME280;58108;48.094;11.838;2024-01-10T05:42:35;96029.19;;;-7.89;100.00
70559;BME280;58108;48.094;11.838;2024-01-10T05:45:00;96024.06;;;-8.00;100.00
70559;BME280;58108;48.094;11.838;2024-01-10T05:47:27;96026.63;;;-7.96;100.00
70559;BME280;58108;48.094;11.838;2024-01-10T05:49:53;96024.94;;;-7.92;100.00
70559;BME280;58108;48.094;11.838;2024-01-10T05:52:19;96022.38;;;-7.98;100.00
70559;BME280;58108;48.094;11.838;2024-01-10T05:54:45;96020.63;;;-8.12;100.00
70559;BME280;58108;48.094;11.838;2024-01-10T05:57:11;96029.09;;;-8.16;100.00
70559;BME280;58108;48.094;11.838;2024-01-10T05:59:36;96035.78;;;-8.35;100.00
70559;BME280;58108;48.094;11.838;2024-01-10T06:02:05;96034.97;;;-8.29;100.00
70559;BME280;58108;48.094;11.838;2024-01-10T06:04:30;96038.34;;;-8.33;100.00
70559;BME280;58108;48.094;11.838;2024-01-10T06:06:58;96029.81;;;-8.53;100.00
70559;BME280;58108;48.094;11.838;2024-01-10T06:09:23;96034.03;;;-8.47;100.00
70559;BME280;58108;48.094;11.838;2024-01-10T06:11:49;96035.72;;;-8.47;100.00
70559;BME280;58108;48.094;11.838;2024-01-10T06:14:15;96033.19;;;-8.46;100.00
70559;BME280;58108;48.094;11.838;2024-01-10T06:16:40;96039.97;;;-8.45;100.00
70559;BME280;58108;48.094;11.838;2024-01-10T06:19:06;96047.56;;;-8.56;100.00
70559;BME280;58108;48.094;11.838;2024-01-10T06:21:31;96038.31;;;-8.35;100.00
70559;BME280;58108;48.094;11.838;2024-01-10T06:23:57;96039.13;;;-8.42;100.00
70559;BME280;58108;48.094;11.838;2024-01-10T06:26:22;96036.59;;;-8.45;100.00
70559;BME280;58108;48.094;11.838;2024-01-10T06:28:48;96037.50;;;-8.31;100.00
70559;BME280;58108;48.094;11.838;2024-01-10T06:31:13;96033.28;;;-8.29;100.00
70559;BME280;58108;48.094;11.838;2024-01-10T06:33:39;96032.38;;;-8.39;100.00
70559;BME280;58108;48.094;11.838;2024-01-10T06:36:05;96034.91;;;-8.39;100.00
70559;BME280;58108;48.094;11.838;2024-01-10T06:38:30;96029.88;;;-8.28;100.00
70559;BME280;58108;48.094;11.838;2024-01-10T06:40:56;96036.69;;;-8.20;100.00
70559;BME280;58108;48.094;11.838;2024-01-10T06:43:22;96040.97;;;-8.15;100.00
70559;BME280;58108;48.094;11.838;2024-01-10T06:45:47;96029.94;;;-8.11;100.00
70559;BME280;58108;48.094;11.838;2024-01-10T06:48:13;96038.34;;;-8.29;100.00
70559;BME280;58108;48.094;11.838;2024-01-10T06:50:39;96037.41;;;-8.48;100.00
70559;BME280;58108;48.094;11.838;2024-01-10T06:53:05;96040.03;;;-8.28;100.00
70559;BME280;58108;48.094;11.838;2024-01-10T06:55:31;96043.50;;;-8.16;100.00
70559;BME280;58108;48.094;11.838;2024-01-10T06:57:56;96047.59;;;-8.43;100.00
70559;BME280;58108;48.094;11.838;2024-01-10T07:00:22;96050.94;;;-8.55;100.00
70559;BME280;58108;48.094;11.838;2024-01-10T07:02:49;96051.81;;;-8.42;100.00
70559;BME280;58108;48.094;11.838;2024-01-10T07:05:15;96050.97;;;-8.52;100.00
70559;BME280;58108;48.094;11.838;2024-01-10T07:07:41;96050.09;;;-8.54;100.00
70559;BME280;58108;48.094;11.838;2024-01-10T07:10:07;96054.34;;;-8.55;100.00
70559;BME280;58108;48.094;11.838;2024-01-10T07:12:36;96053.56;;;-8.35;100.00
70559;BME280;58108;48.094;11.838;2024-01-10T07:15:01;96051.81;;;-8.42;100.00
70559;BME280;58108;48.094;11.838;2024-01-10T07:17:30;96058.63;;;-8.38;100.00
70559;BME280;58108;48.094;11.838;2024-01-10T07:19:55;96061.16;;;-8.43;100.00
70559;BME280;58108;48.094;11.838;2024-01-10T07:22:24;96061.19;;;-8.33;100.00
70559;BME280;58108;48.094;11.838;2024-01-10T07:24:50;96062.06;;;-8.33;100.00
70559;BME280;58108;48.094;11.838;2024-01-10T07:27:15;96064.69;;;-8.10;100.00
70559;BME280;58108;48.094;11.838;2024-01-10T07:29:41;96073.13;;;-8.18;100.00
70559;BME280;58108;48.094;11.838;2024-01-10T07:32:07;96074.88;;;-8.03;100.00
70559;BME280;58108;48.094;11.838;2024-01-10T07:34:39;96071.50;;;-8.04;100.00
70559;BME280;58108;48.094;11.838;2024-01-10T07:37:05;96068.97;;;-8.04;100.00
70559;BME280;58108;48.094;11.838;2024-01-10T07:39:31;96077.47;;;-7.88;100.00
70559;BME280;58108;48.094;11.838;2024-01-10T07:41:56;96085.06;;;-7.99;100.00
70559;BME280;58108;48.094;11.838;2024-01-10T07:44:22;96084.16;;;-8.07;100.00
70559;BME280;58108;48.094;11.838;2024-01-10T07:46:47;96085.84;;;-8.12;100.00
70559;BME280;58108;48.094;11.838;2024-01-10T07:49:13;96086.72;;;-8.07;100.00
70559;BME280;58108;48.094;11.838;2024-01-10T07:51:38;96092.69;;;-7.99;100.00
70559;BME280;58108;48.094;11.838;2024-01-10T07:54:04;96093.59;;;-7.81;100.00
70559;BME280;58108;48.094;11.838;2024-01-10T07:56:30;96096.94;;;-7.87;100.00
70559;BME280;58108;48.094;11.838;2024-01-10T07:58:55;96103.66;;;-8.01;100.00
70559;BME280;58108;48.094;11.838;2024-01-10T08:01:21;96097.84;;;-7.77;100.00
70559;BME280;58108;48.094;11.838;2024-01-10T08:03:47;96099.59;;;-7.59;100.00
70559;BME280;58108;48.094;11.838;2024-01-10T08:06:12;96108.09;;;-7.49;100.00
70559;BME280;58108;48.094;11.838;2024-01-10T08:08:39;96105.53;;;-7.57;100.00
70559;BME280;58108;48.094;11.838;2024-01-10T08:11:04;96113.22;;;-7.36;100.00
70559;BME280;58108;48.094;11.838;2024-01-10T08:13:31;96107.28;;;-7.23;100.00
70559;BME280;58108;48.094;11.838;2024-01-10T08:15:56;96109.00;;;-7.20;100.00
70559;BME280;58108;48.094;11.838;2024-01-10T08:18:23;96114.94;;;-7.07;100.00
70559;BME280;58108;48.094;11.838;2024-01-10T08:20:48;96112.38;;;-7.26;100.00
70559;BME280;58108;48.094;11.838;2024-01-10T08:23:14;96115.78;;;-7.04;100.00
70559;BME280;58108;48.094;11.838;2024-01-10T08:25:39;96107.34;;;-6.89;100.00
70559;BME280;58108;48.094;11.838;2024-01-10T08:28:06;96107.28;;;-7.32;100.00
70559;BME280;58108;48.094;11.838;2024-01-10T08:30:31;96105.59;;;-7.24;100.00
70559;BME280;58108;48.094;11.838;2024-01-10T08:32:57;96103.91;;;-7.19;100.00
70559;BME280;58108;48.094;11.838;2024-01-10T08:35:24;96111.56;;;-7.03;100.00
70559;BME280;58108;48.094;11.838;2024-01-10T08:37:50;96105.63;;;-6.85;100.00
70559;BME280;58108;48.094;11.838;2024-01-10T08:40:15;96103.94;;;-6.53;100.00
70559;BME280;58108;48.094;11.838;2024-01-10T08:42:42;96109.84;;;-6.48;100.00
70559;BME280;58108;48.094;11.838;2024-01-10T08:45:08;96108.19;;;-6.79;100.00
70559;BME280;58108;48.094;11.838;2024-01-10T08:47:35;96108.16;;;-6.59;100.00
70559;BME280;58108;48.094;11.838;2024-01-10T08:50:02;96105.63;;;-6.97;100.00
70559;BME280;58108;48.094;11.838;2024-01-10T08:52:31;96107.31;;;-7.14;100.00
70559;BME280;58108;48.094;11.838;2024-01-10T08:54:56;96109.88;;;-6.64;100.00
70559;BME280;58108;48.094;11.838;2024-01-10T08:57:22;96113.25;;;-6.54;100.00
70559;BME280;58108;48.094;11.838;2024-01-10T08:59:47;96112.41;;;-6.56;100.00
70559;BME280;58108;48.094;11.838;2024-01-10T09:02:14;96114.97;;;-6.57;100.00
70559;BME280;58108;48.094;11.838;2024-01-10T09:04:39;96114.91;;;-6.23;100.00
70559;BME280;58108;48.094;11.838;2024-01-10T09:09:37;96114.81;;;-6.00;100.00
70559;BME280;58108;48.094;11.838;2024-01-10T09:12:10;96120.81;;;-6.07;100.00
70559;BME280;58108;48.094;11.838;2024-01-10T09:15:04;96120.84;;;-6.21;100.00
70559;BME280;58108;48.094;11.838;2024-01-10T09:17:30;96121.72;;;-6.27;100.00
70559;BME280;58108;48.094;11.838;2024-01-10T09:19:55;96121.72;;;-6.22;100.00
70559;BME280;58108;48.094;11.838;2024-01-10T09:22:21;96120.00;;;-6.25;100.00
70559;BME280;58108;48.094;11.838;2024-01-10T09:24:46;96129.34;;;-6.36;100.00
70559;BME280;58108;48.094;11.838;2024-01-10T09:27:12;96131.94;;;-6.46;100.00
70559;BME280;58108;48.094;11.838;2024-01-10T09:29:37;96133.59;;;-6.16;100.00
70559;BME280;58108;48.094;11.838;2024-01-10T09:32:03;96136.91;;;-5.90;100.00
70559;BME280;58108;48.094;11.838;2024-01-10T09:34:29;96130.97;;;-5.99;100.00
70559;BME280;58108;48.094;11.838;2024-01-10T09:36:54;96126.78;;;-6.13;100.00
70559;BME280;58108;48.094;11.838;2024-01-10T09:39:20;96122.41;;;-5.81;100.00
70559;BME280;58108;48.094;11.838;2024-01-10T09:41:47;96130.03;;;-5.69;100.00
70559;BME280;58108;48.094;11.838;2024-01-10T09:44:15;96131.81;;;-5.94;100.00
70559;BME280;58108;48.094;11.838;2024-01-10T09:46:51;96128.47;;;-6.18;100.00
70559;BME280;58108;48.094;11.838;2024-01-10T09:49:17;96131.03;;;-6.23;100.00
70559;BME280;58108;48.094;11.838;2024-01-10T09:51:45;96125.94;;;-6.13;100.00
70559;BME280;58108;48.094;11.838;2024-01-10T09:54:15;96123.41;;;-6.23;100.00
70559;BME280;58108;48.094;11.838;2024-01-10T09:56:42;96128.50;;;-6.13;100.00
70559;BME280;58108;48.094;11.838;2024-01-10T09:59:09;96127.63;;;-6.09;100.00
70559;BME280;58108;48.094;11.838;2024-01-10T10:01:39;96130.94;;;-5.95;100.00
70559;BME280;58108;48.094;11.838;2024-01-10T10:04:07;96129.22;;;-5.79;100.00
70559;BME280;58108;48.094;11.838;2024-01-10T10:06:33;96120.72;;;-5.84;100.00
70559;BME280;58108;48.094;11.838;2024-01-10T10:09:00;96135.94;;;-5.62;100.00
70559;BME280;58108;48.094;11.838;2024-01-10T10:11:26;96124.03;;;-5.57;100.00
70559;BME280;58108;48.094;11.838;2024-01-10T10:13:51;96119.66;;;-5.36;100.00
70559;BME280;58108;48.094;11.838;2024-01-10T10:16:24;96128.19;;;-5.39;100.00
70559;BME280;58108;48.094;11.838;2024-01-10T10:18:53;96129.00;;;-5.32;100.00
70559;BME280;58108;48.094;11.838;2024-01-10T10:21:25;96120.56;;;-5.45;100.00
70559;BME280;58108;48.094;11.838;2024-01-10T10:24:01;96125.56;;;-5.26;100.00
70559;BME280;58108;48.094;11.838;2024-01-10T10:26:32;96115.06;;;-4.84;100.00
70559;BME280;58108;48.094;11.838;2024-01-10T10:28:57;96121.81;;;-4.77;100.00
70559;BME280;58108;48.094;11.838;2024-01-10T10:31:24;96120.03;;;-4.64;98.93
70559;BME280;58108;48.094;11.838;2024-01-10T10:33:50;96113.19;;;-4.62;98.91
70559;BME280;58108;48.094;11.838;2024-01-10T10:36:17;96122.31;;;-4.36;99.88
70559;BME280;58108;48.094;11.838;2024-01-10T10:38:42;96114.03;;;-4.60;99.88
70559;BME280;58108;48.094;11.838;2024-01-10T10:41:08;96129.13;;;-4.35;99.77
70559;BME280;58108;48.094;11.838;2024-01-10T10:43:37;96122.22;;;-4.23;98.77
70559;BME280;58108;48.094;11.838;2024-01-10T10:46:04;96124.94;;;-4.41;99.98
70559;BME280;58108;48.094;11.838;2024-01-10T10:48:35;96122.13;;;-4.13;99.66
70559;BME280;58108;48.094;11.838;2024-01-10T10:51:08;96118.53;;;-3.98;96.99
70559;BME280;58108;48.094;11.838;2024-01-10T10:53:35;96125.50;;;-4.10;96.40
70559;BME280;58108;48.094;11.838;2024-01-10T10:56:04;96123.09;;;-4.24;96.98
70559;BME280;58108;48.094;11.838;2024-01-10T10:58:40;96125.50;;;-4.09;97.71
70559;BME280;58108;48.094;11.838;2024-01-10T11:01:06;96121.41;;;-4.27;97.12
70559;BME280;58108;48.094;11.838;2024-01-10T11:03:37;96119.09;;;-3.69;97.69
70559;BME280;58108;48.094;11.838;2024-01-10T11:06:04;96121.66;;;-3.72;98.29
70559;BME280;58108;48.094;11.838;2024-01-10T11:08:39;96118.34;;;-3.77;97.37
70559;BME280;58108;48.094;11.838;2024-01-10T11:11:18;96113.66;;;-3.44;95.36
70559;BME280;58108;48.094;11.838;2024-01-10T11:14:04;96114.97;;;-3.82;96.85
70559;BME280;58108;48.094;11.838;2024-01-10T11:16:49;96108.91;;;-3.75;97.96
70559;BME280;58108;48.094;11.838;2024-01-10T11:24:28;96109.22;;;-4.00;98.23
70559;BME280;58108;48.094;11.838;2024-01-10T11:27:27;96122.06;;;-4.06;98.77
70559;BME280;58108;48.094;11.838;2024-01-10T11:29:52;96114.13;;;-3.83;97.17
70559;BME280;58108;48.094;11.838;2024-01-10T11:32:22;96114.06;;;-3.77;96.48
70559;BME280;58108;48.094;11.838;2024-01-10T11:34:55;96118.09;;;-3.57;95.85
70559;BME280;58108;48.094;11.838;2024-01-10T11:37:23;96114.50;;;-4.17;98.39
70559;BME280;58108;48.094;11.838;2024-01-10T11:39:50;96115.09;;;-3.93;99.97
70559;BME280;58108;48.094;11.838;2024-01-10T11:42:23;96110.72;;;-3.83;99.18
70559;BME280;58108;48.094;11.838;2024-01-10T11:44:50;96113.13;;;-3.69;98.57
70559;BME280;58108;48.094;11.838;2024-01-10T11:47:19;96119.63;;;-3.44;95.73
70559;BME280;58108;48.094;11.838;2024-01-10T11:50:01;96119.66;;;-3.47;96.23
70559;BME280;58108;48.094;11.838;2024-01-10T11:52:35;96121.06;;;-3.93;98.28
70559;BME280;58108;48.094;11.838;2024-01-10T11:55:02;96120.75;;;-4.49;100.00
70559;BME280;58108;48.094;11.838;2024-01-10T11:57:29;96118.50;;;-3.93;100.00
70559;BME280;58108;48.094;11.838;2024-01-10T11:59:58;96120.44;;;-4.17;100.00
70559;BME280;58108;48.094;11.838;2024-01-10T12:02:26;96123.00;;;-4.17;100.00
70559;BME280;58108;48.094;11.838;2024-01-10T12:04:56;96115.19;;;-4.03;100.00
70559;BME280;58108;48.094;11.838;2024-01-10T12:07:22;96113.63;;;-4.16;100.00
70559;BME280;58108;48.094;11.838;2024-01-10T12:09:49;96121.50;;;-4.38;100.00
70559;BME280;58108;48.094;11.838;2024-01-10T12:12:15;96122.41;;;-4.45;100.00
70559;BME280;58108;48.094;11.838;2024-01-10T12:14:41;96117.66;;;-4.90;100.00
70559;BME280;58108;48.094;11.838;2024-01-10T12:17:09;96120.63;;;-4.35;100.00
70559;BME280;58108;48.094;11.838;2024-01-10T12:19:35;96118.59;;;-4.01;100.00
70559;BME280;58108;48.094;11.838;2024-01-10T12:22:03;96109.28;;;-3.34;99.04
70559;BME280;58108;48.094;11.838;2024-01-10T12:24:31;96113.22;;;-3.77;98.16
70559;BME280;58108;48.094;11.838;2024-01-10T12:26:56;96100.09;;;-4.26;100.00
70559;BME280;58108;48.094;11.838;2024-01-10T12:29:22;96104.28;;;-4.17;100.00
70559;BME280;58108;48.094;11.838;2024-01-10T12:31:48;96105.72;;;-3.94;100.00
70559;BME280;58108;48.094;11.838;2024-01-10T12:34:14;96099.75;;;-3.92;100.00
70559;BME280;58108;48.094;11.838;2024-01-10T12:36:43;96104.41;;;-3.54;100.00
70559;BME280;58108;48.094;11.838;2024-01-10T12:39:11;96103.66;;;-3.63;99.71
70559;BME280;58108;48.094;11.838;2024-01-10T12:41:37;96100.19;;;-3.60;98.85
70559;BME280;58108;48.094;11.838;2024-01-10T12:44:04;96103.03;;;-3.16;97.13
70559;BME280;58108;48.094;11.838;2024-01-10T12:46:30;96098.56;;;-3.02;96.89